createdAt,value
2019-05-03T00:01:12.901Z,29.33
2019-05-03T00:03:42.529Z,28.20
2019-05-03T00:06:12.058Z,28.40
2019-05-03T00:08:41.476Z,24.10
2019-05-03T00:11:10.230Z,27.67
2019-05-03T00:13:38.823Z,27.47
2019-05-03T00:16:26.514Z,32.53
2019-05-03T00:18:55.182Z,28.17
2019-05-03T00:21:25.398Z,29.13
2019-05-03T00:23:53.928Z,29.93
2019-05-03T00:26:22.672Z,29.13
2019-05-03T00:28:52.063Z,29.73
2019-05-03T00:31:22.579Z,26.43
2019-05-03T00:33:54.097Z,25.47
2019-05-03T00:36:27.729Z,21.93
2019-05-03T00:39:01.952Z,26.13
2019-05-03T00:41:32.000Z,25.43
2019-05-03T00:44:02.250Z,26.00
2019-05-03T00:46:51.751Z,24.57
2019-05-03T00:49:22.500Z,26.03
2019-05-03T00:51:51.687Z,24.17
2019-05-03T00:54:22.178Z,24.97
2019-05-03T00:56:52.262Z,28.30
2019-05-03T00:59:22.123Z,25.27
2019-05-03T01:01:52.130Z,24.10
2019-05-03T01:04:22.366Z,24.23
2019-05-03T01:06:52.663Z,25.40
2019-05-03T01:09:23.267Z,29.07
2019-05-03T01:11:52.446Z,25.00
2019-05-03T01:14:22.579Z,24.93
2019-05-03T01:16:52.210Z,26.40
2019-05-03T01:19:22.722Z,27.97
2019-05-03T01:21:51.566Z,27.40
2019-05-03T01:24:21.729Z,26.37
2019-05-03T01:26:52.442Z,28.80
2019-05-03T01:29:39.874Z,26.37
2019-05-03T01:32:08.388Z,25.63
2019-05-03T01:34:36.868Z,25.53
2019-05-03T01:37:05.412Z,26.83
2019-05-03T01:39:33.917Z,26.40
2019-05-03T01:42:02.792Z,26.23
2019-05-03T01:44:32.692Z,28.60
2019-05-03T01:47:03.896Z,29.07
2019-05-03T01:49:42.645Z,29.17
2019-05-03T01:52:18.779Z,24.93
2019-05-03T01:54:47.356Z,28.83
2019-05-03T01:57:15.908Z,28.47
2019-05-03T01:59:44.420Z,24.50
2019-05-03T02:02:23.050Z,26.87
2019-05-03T02:05:19.824Z,26.27
2019-05-03T02:07:48.742Z,26.97
2019-05-03T02:10:17.368Z,28.47
2019-05-03T02:12:45.954Z,27.60
2019-05-03T02:15:14.456Z,26.60
2019-05-03T02:17:42.989Z,28.63
2019-05-03T02:20:12.676Z,29.97
2019-05-03T02:22:42.771Z,26.40
2019-05-03T02:25:12.403Z,27.83
2019-05-03T02:27:42.286Z,27.23
2019-05-03T02:30:14.296Z,27.83
2019-05-03T02:32:43.872Z,27.67
2019-05-03T02:35:14.032Z,28.73
2019-05-03T02:37:43.998Z,27.80
2019-05-03T02:40:13.241Z,27.20
2019-05-03T02:42:46.384Z,29.50
2019-05-03T02:45:22.571Z,29.90
2019-05-03T02:47:57.985Z,27.93
2019-05-03T02:50:26.538Z,27.20
2019-05-03T02:52:55.378Z,28.07
2019-05-03T02:55:26.041Z,27.23
2019-05-03T02:57:56.334Z,28.77
2019-05-03T03:00:39.074Z,27.87
2019-05-03T03:03:07.592Z,29.97
2019-05-03T03:05:36.253Z,28.03
2019-05-03T03:08:05.957Z,27.37
2019-05-03T03:10:55.667Z,27.87
2019-05-03T03:13:25.652Z,28.27
2019-05-03T03:15:55.408Z,27.50
2019-05-03T03:18:25.584Z,30.20
2019-05-03T03:20:55.788Z,27.37
2019-05-03T03:23:26.399Z,28.63
2019-05-03T03:25:57.028Z,27.37
2019-05-03T03:28:26.128Z,26.60
2019-05-03T03:31:17.320Z,30.03
2019-05-03T03:33:47.111Z,27.83
2019-05-03T03:36:43.034Z,25.47
2019-05-03T03:38:45.776Z,26.17
2019-05-03T03:41:16.291Z,28.00
2019-05-03T03:43:46.367Z,26.03
2019-05-03T03:46:15.972Z,26.27
2019-05-03T03:48:46.055Z,22.83
2019-05-03T03:51:15.565Z,29.17
2019-05-03T03:53:46.559Z,26.67
2019-05-03T03:56:16.200Z,24.90
2019-05-03T03:58:46.482Z,28.87
2019-05-03T04:01:15.763Z,26.27
2019-05-03T04:03:46.022Z,25.63
2019-05-03T04:06:15.518Z,26.73
2019-05-03T04:08:45.379Z,27.80
2019-05-03T04:11:15.545Z,23.23
2019-05-03T04:13:45.369Z,22.33
2019-05-03T04:16:28.635Z,24.80
2019-05-03T04:19:17.376Z,27.00
2019-05-03T04:21:46.304Z,25.73
2019-05-03T04:24:16.241Z,26.93
2019-05-03T04:26:45.396Z,31.37
2019-05-03T04:29:16.053Z,29.87
2019-05-03T04:31:45.801Z,24.07
2019-05-03T04:34:16.209Z,25.00
2019-05-03T04:36:46.143Z,26.43
2019-05-03T04:39:19.712Z,24.23
2019-05-03T04:41:45.370Z,28.60
2019-05-03T04:44:15.411Z,28.20
2019-05-03T04:46:46.486Z,25.73
2019-05-03T04:49:15.126Z,22.43
2019-05-03T04:51:46.496Z,25.90
2019-05-03T04:54:29.313Z,26.53
2019-05-03T04:56:57.813Z,24.90
2019-05-03T04:59:26.369Z,26.27
2019-05-03T05:01:56.016Z,27.40
2019-05-03T05:04:25.373Z,25.17
2019-05-03T05:06:55.525Z,28.40
2019-05-03T05:09:25.881Z,25.10
2019-05-03T05:11:54.952Z,22.80
2019-05-03T05:14:25.666Z,20.90
2019-05-03T05:16:55.714Z,24.57
2019-05-03T05:22:08.114Z,19.70
2019-05-03T05:24:36.662Z,19.83
2019-05-03T05:27:19.870Z,23.40
2019-05-03T05:29:48.432Z,19.53
2019-05-03T05:32:17.034Z,19.70
2019-05-03T05:35:05.169Z,22.40
2019-05-03T05:37:35.243Z,21.83
2019-05-03T05:40:05.277Z,22.53
2019-05-03T05:42:35.049Z,23.40
2019-05-03T05:45:04.970Z,20.70
2019-05-03T05:47:48.013Z,21.37
2019-05-03T05:50:26.959Z,17.13
2019-05-03T05:52:55.471Z,22.60
2019-05-03T05:55:44.732Z,17.63
2019-05-03T05:58:20.060Z,21.00
2019-05-03T06:01:12.214Z,20.03
2019-05-03T06:03:40.715Z,17.80
2019-05-03T06:06:12.266Z,16.87
2019-05-03T06:08:59.223Z,17.30
2019-05-03T06:11:50.095Z,17.73
2019-05-03T06:14:25.811Z,21.50
2019-05-03T06:17:14.536Z,16.60
2019-05-03T06:19:48.268Z,18.00
2019-05-03T06:22:36.427Z,17.43
2019-05-03T06:25:16.335Z,18.53
2019-05-03T06:27:44.880Z,17.63
2019-05-03T06:30:32.595Z,19.33
2019-05-03T06:33:01.470Z,22.07
2019-05-03T06:38:16.774Z,19.03
2019-05-03T06:40:45.315Z,18.67
2019-05-03T06:43:15.620Z,16.73
2019-05-03T06:45:46.683Z,19.70
2019-05-03T06:48:35.174Z,17.37
2019-05-03T06:51:08.679Z,17.00
2019-05-03T06:53:34.612Z,16.77
2019-05-03T06:56:04.540Z,16.23
2019-05-03T07:01:25.151Z,13.97
2019-05-03T07:04:07.803Z,11.70
2019-05-03T07:06:46.722Z,11.27
2019-05-03T07:09:25.014Z,11.50
2019-05-03T07:11:55.392Z,13.17
2019-05-03T07:14:24.674Z,12.97
2019-05-03T07:16:55.328Z,15.07
2019-05-03T07:22:35.197Z,15.23
2019-05-03T07:25:22.942Z,12.43
2019-05-03T07:27:51.492Z,11.27
2019-05-03T07:30:20.056Z,12.70
2019-05-03T07:32:54.527Z,10.93
2019-05-03T07:35:25.140Z,13.87
2019-05-03T07:37:55.301Z,12.23
2019-05-03T07:40:25.237Z,10.57
2019-05-03T07:42:55.429Z,13.67
2019-05-03T07:45:25.596Z,13.50
2019-05-03T07:47:55.913Z,11.60
2019-05-03T07:50:25.829Z,10.87
2019-05-03T07:52:55.808Z,10.57
2019-05-03T07:55:45.549Z,11.13
2019-05-03T07:58:17.233Z,9.53
2019-05-03T08:00:45.966Z,11.87
2019-05-03T08:03:15.431Z,10.40
2019-05-03T08:05:45.460Z,8.30
2019-05-03T08:08:15.613Z,9.13
2019-05-03T08:10:45.041Z,10.43
2019-05-03T08:13:15.103Z,7.80
2019-05-03T08:15:45.127Z,7.70
2019-05-03T08:18:15.317Z,8.17
2019-05-03T08:20:45.117Z,7.93
2019-05-03T08:23:26.418Z,8.00
2019-05-03T08:25:44.620Z,10.03
2019-05-03T08:28:14.561Z,9.23
2019-05-03T08:31:00.572Z,11.33
2019-05-03T08:33:46.936Z,9.47
2019-05-03T08:36:15.764Z,11.23
2019-05-03T08:38:45.203Z,10.20
2019-05-03T08:41:18.335Z,8.40
2019-05-03T08:43:47.676Z,7.40
2019-05-03T08:46:16.446Z,14.23
2019-05-03T08:48:45.597Z,11.40
2019-05-03T08:51:14.865Z,8.77
2019-05-03T08:53:46.541Z,7.37
2019-05-03T08:56:15.709Z,7.33
2019-05-03T08:58:45.101Z,9.37
2019-05-03T09:01:14.796Z,7.13
2019-05-03T09:03:45.628Z,9.00
2019-05-03T09:06:15.429Z,7.10
2019-05-03T09:08:45.767Z,10.87
2019-05-03T09:11:17.185Z,11.10
2019-05-03T09:13:56.239Z,8.53
2019-05-03T09:16:25.133Z,9.37
2019-05-03T09:18:54.893Z,9.03
2019-05-03T09:21:25.524Z,6.27
2019-05-03T09:23:55.389Z,6.70
2019-05-03T09:26:28.993Z,8.37
2019-05-03T09:28:55.652Z,8.80
2019-05-03T09:31:24.750Z,5.97
2019-05-03T09:33:54.794Z,8.60
2019-05-03T09:36:25.425Z,7.30
2019-05-03T09:38:54.926Z,8.70
2019-05-03T09:41:25.694Z,7.37
2019-05-03T09:43:55.508Z,8.73
2019-05-03T09:46:26.596Z,12.33
2019-05-03T09:49:03.297Z,10.10
2019-05-03T09:51:25.768Z,7.07
2019-05-03T09:53:59.742Z,7.50
2019-05-03T09:56:55.318Z,10.37
2019-05-03T09:59:16.474Z,7.57
2019-05-03T10:01:45.633Z,7.53
2019-05-03T10:04:17.639Z,6.77
2019-05-03T10:06:47.346Z,8.10
2019-05-03T10:09:16.483Z,9.60
2019-05-03T10:11:45.858Z,7.80
2019-05-03T10:14:15.550Z,9.83
2019-05-03T10:16:54.605Z,9.17
2019-05-03T10:19:34.861Z,9.83
2019-05-03T10:21:52.914Z,10.90
2019-05-03T10:24:21.432Z,7.77
2019-05-03T10:26:49.952Z,6.53
2019-05-03T10:29:18.470Z,6.00
2019-05-03T10:31:57.542Z,6.73
2019-05-03T10:34:32.021Z,8.70
2019-05-03T10:37:00.639Z,7.33
2019-05-03T10:39:29.148Z,6.40
2019-05-03T10:41:57.678Z,7.40
2019-05-03T10:44:26.274Z,9.07
2019-05-03T10:46:55.940Z,9.30
2019-05-03T10:49:24.684Z,8.53
2019-05-03T10:51:59.053Z,7.77
2019-05-03T10:54:27.593Z,9.70
2019-05-03T10:57:01.893Z,9.27
2019-05-03T10:59:30.888Z,8.03
2019-05-03T11:02:19.593Z,7.27
2019-05-03T11:04:48.145Z,7.10
2019-05-03T11:07:16.785Z,9.20
2019-05-03T11:09:49.721Z,7.83
2019-05-03T11:12:15.617Z,10.03
2019-05-03T11:14:45.544Z,7.07
2019-05-03T11:17:14.897Z,7.00
2019-05-03T11:19:45.276Z,6.80
2019-05-03T11:22:14.599Z,7.77
2019-05-03T11:24:45.442Z,7.87
2019-05-03T11:27:19.445Z,8.17
2019-05-03T11:29:47.947Z,8.67
2019-05-03T11:32:35.657Z,5.80
2019-05-03T11:35:12.408Z,6.23
2019-05-03T11:37:45.528Z,7.83
2019-05-03T11:40:15.705Z,5.87
2019-05-03T11:42:44.921Z,6.53
2019-05-03T11:45:15.260Z,5.23
2019-05-03T11:47:45.699Z,8.63
2019-05-03T11:50:14.823Z,5.87
2019-05-03T11:52:46.772Z,7.80
2019-05-03T11:55:15.916Z,5.90
2019-05-03T11:57:45.002Z,5.03
2019-05-03T12:00:16.675Z,7.17
2019-05-03T12:02:55.598Z,4.57
2019-05-03T12:05:46.072Z,4.30
2019-05-03T12:08:14.778Z,6.83
2019-05-03T12:10:55.235Z,6.17
2019-05-03T12:13:24.574Z,6.23
2019-05-03T12:15:55.284Z,6.80
2019-05-03T12:18:25.183Z,6.93
2019-05-03T12:20:56.839Z,6.20
2019-05-03T12:23:25.739Z,6.07
2019-05-03T12:25:55.638Z,5.77
2019-05-03T12:28:25.705Z,6.47
2019-05-03T12:30:54.381Z,8.43
2019-05-03T12:33:22.893Z,7.10
2019-05-03T12:35:51.398Z,5.50
2019-05-03T12:38:19.922Z,7.70
2019-05-03T12:40:49.594Z,5.87
2019-05-03T12:43:18.112Z,6.03
2019-05-03T12:45:46.599Z,11.17
2019-05-03T12:48:15.615Z,7.43
2019-05-03T12:50:46.409Z,8.57
2019-05-03T12:53:15.159Z,6.33
2019-05-03T12:55:43.875Z,5.40
2019-05-03T12:58:12.451Z,7.37
2019-05-03T13:01:15.809Z,7.93
2019-05-03T13:04:05.722Z,8.43
2019-05-03T13:06:36.257Z,6.07
2019-05-03T13:09:05.921Z,6.33
2019-05-03T13:11:36.567Z,5.70
2019-05-03T13:14:05.294Z,7.17
2019-05-03T13:16:35.348Z,6.67
2019-05-03T13:19:05.637Z,5.20
2019-05-03T13:21:35.547Z,5.23
2019-05-03T13:24:05.505Z,7.07
2019-05-03T13:26:35.039Z,7.80
2019-05-03T13:31:34.695Z,7.03
2019-05-03T13:34:05.464Z,7.43
2019-05-03T13:36:34.886Z,6.87
2019-05-03T13:39:13.923Z,7.73
2019-05-03T13:41:35.655Z,6.40
2019-05-03T13:44:05.180Z,8.17
2019-05-03T13:46:35.295Z,6.67
2019-05-03T13:49:05.397Z,7.13
2019-05-03T13:51:35.793Z,7.63
2019-05-03T13:54:05.521Z,6.43
2019-05-03T13:56:35.327Z,7.17
2019-05-03T13:59:04.658Z,7.43
2019-05-03T14:01:34.455Z,9.50
2019-05-03T14:04:05.150Z,5.37
2019-05-03T14:06:34.537Z,7.53
2019-05-03T14:09:05.237Z,9.80
2019-05-03T14:11:35.334Z,10.00
2019-05-03T14:14:04.718Z,11.33
2019-05-03T14:16:33.434Z,6.57
2019-05-03T14:19:07.570Z,7.60
2019-05-03T14:21:40.826Z,7.60
2019-05-03T14:24:09.408Z,8.63
2019-05-03T14:26:38.081Z,8.77
2019-05-03T14:29:06.608Z,7.50
2019-05-03T14:31:35.195Z,7.97
2019-05-03T14:34:05.809Z,9.37
2019-05-03T14:36:35.868Z,6.27
2019-05-03T14:39:09.331Z,7.13
2019-05-03T14:41:36.594Z,9.57
2019-05-03T14:44:05.218Z,7.97
2019-05-03T14:46:36.073Z,9.83
2019-05-03T14:49:05.538Z,8.00
2019-05-03T14:51:34.983Z,8.27
2019-05-03T14:54:05.360Z,7.07
2019-05-03T14:56:52.586Z,10.17
2019-05-03T14:59:58.406Z,7.30
2019-05-03T15:02:51.084Z,9.17
2019-05-03T15:05:19.565Z,10.47
2019-05-03T15:07:48.083Z,7.77
2019-05-03T15:10:16.645Z,8.57
2019-05-03T15:12:45.381Z,8.80
2019-05-03T15:15:14.710Z,13.53
2019-05-03T15:17:45.580Z,11.53
2019-05-03T15:20:34.715Z,13.50
2019-05-03T15:23:05.328Z,12.47
2019-05-03T15:25:34.567Z,13.93
2019-05-03T15:28:05.070Z,11.17
2019-05-03T15:30:35.233Z,10.90
2019-05-03T15:33:05.267Z,11.33
2019-05-03T15:35:35.144Z,9.77
2019-05-03T15:38:05.365Z,10.33
2019-05-03T15:40:34.454Z,10.70
2019-05-03T15:43:16.712Z,7.90
2019-05-03T15:46:07.167Z,9.37
2019-05-03T15:48:39.995Z,10.87
2019-05-03T15:51:08.518Z,9.40
2019-05-03T15:53:37.007Z,8.17
2019-05-03T15:56:05.559Z,10.47
2019-05-03T15:58:34.063Z,7.13
2019-05-03T16:01:04.533Z,9.90
2019-05-03T16:03:32.840Z,10.17
2019-05-03T16:06:01.335Z,8.73
2019-05-03T16:08:29.955Z,9.43
2019-05-03T16:10:58.436Z,8.77
2019-05-03T16:13:27.074Z,12.63
2019-05-03T16:15:55.659Z,10.27
2019-05-03T16:18:24.668Z,8.47
2019-05-03T16:20:54.585Z,8.93
2019-05-03T16:23:24.965Z,9.70
2019-05-03T16:25:54.386Z,9.37
2019-05-03T16:28:37.392Z,12.00
2019-05-03T16:31:09.083Z,9.03
2019-05-03T16:33:37.610Z,8.90
2019-05-03T16:36:06.115Z,11.90
2019-05-03T16:38:35.454Z,13.30
2019-05-03T16:41:05.161Z,11.03
2019-05-03T16:43:34.811Z,10.47
2019-05-03T16:46:05.494Z,11.07
2019-05-03T16:48:35.313Z,10.60
2019-05-03T16:51:04.101Z,10.93
2019-05-03T16:53:32.579Z,7.57
2019-05-03T16:56:03.378Z,9.67
2019-05-03T16:58:31.339Z,11.07
2019-05-03T17:00:59.903Z,11.10
2019-05-03T17:03:38.539Z,10.07
2019-05-03T17:06:20.676Z,13.93
2019-05-03T17:09:11.417Z,11.97
2019-05-03T17:11:40.021Z,8.57
2019-05-03T17:14:08.546Z,8.50
2019-05-03T17:16:37.082Z,8.83
2019-05-03T17:19:05.959Z,9.97
2019-05-03T17:21:34.945Z,8.00
2019-05-03T17:24:04.362Z,8.43
2019-05-03T17:26:35.133Z,9.50
2019-05-03T17:29:04.968Z,7.60
2019-05-03T17:31:35.241Z,10.93
2019-05-03T17:34:05.535Z,10.87
2019-05-03T17:36:35.466Z,8.83
2019-05-03T17:39:09.188Z,9.50
2019-05-03T17:41:54.702Z,8.60
2019-05-03T17:44:45.073Z,7.83
2019-05-03T17:47:14.932Z,10.87
2019-05-03T17:49:45.201Z,11.00
2019-05-03T17:52:34.381Z,9.33
2019-05-03T17:55:15.441Z,13.13
2019-05-03T17:58:12.279Z,9.17
2019-05-03T18:01:02.797Z,10.40
2019-05-03T18:03:35.011Z,10.43
2019-05-03T18:06:14.950Z,11.17
2019-05-03T18:08:54.990Z,9.87
2019-05-03T18:11:26.285Z,10.53
2019-05-03T18:13:55.918Z,10.23
2019-05-03T18:16:24.500Z,7.77
2019-05-03T18:18:54.664Z,9.23
2019-05-03T18:21:24.491Z,8.70
2019-05-03T18:23:54.534Z,8.57
2019-05-03T18:26:24.963Z,14.67
2019-05-03T18:28:55.358Z,13.47
2019-05-03T18:31:25.020Z,11.10
2019-05-03T18:33:54.774Z,8.57
2019-05-03T18:36:25.277Z,10.13
2019-05-03T18:38:55.240Z,9.93
2019-05-03T18:41:25.484Z,8.97
2019-05-03T18:44:22.691Z,10.70
2019-05-03T18:46:55.044Z,9.73
2019-05-03T18:49:24.795Z,13.47
2019-05-03T18:51:55.411Z,10.27
2019-05-03T18:54:24.654Z,7.47
2019-05-03T18:56:53.377Z,11.30
2019-05-03T18:59:22.058Z,11.67
2019-05-03T19:01:50.759Z,9.33
2019-05-03T19:04:38.478Z,10.90
2019-05-03T19:07:12.613Z,12.80
2019-05-03T19:09:58.478Z,11.20
2019-05-03T19:12:40.541Z,16.73
2019-05-03T19:15:09.667Z,9.87
2019-05-03T19:18:04.351Z,10.37
2019-05-03T19:20:35.109Z,12.23
2019-05-03T19:23:04.973Z,12.03
2019-05-03T19:25:44.048Z,11.07
2019-05-03T19:28:07.449Z,11.43
2019-05-03T19:30:35.538Z,11.27
2019-05-03T19:33:04.359Z,12.80
2019-05-03T19:35:33.055Z,12.97
2019-05-03T19:38:01.726Z,16.93
2019-05-03T19:40:30.279Z,13.10
2019-05-03T19:42:58.839Z,15.07
2019-05-03T19:45:27.352Z,12.27
2019-05-03T19:47:55.888Z,14.07
2019-05-03T19:50:24.849Z,12.33
2019-05-03T19:53:14.375Z,11.23
2019-05-03T19:55:44.882Z,13.70
2019-05-03T19:58:14.439Z,12.43
2019-05-03T20:00:50.735Z,9.17
2019-05-03T20:03:29.406Z,13.00
2019-05-03T20:06:04.853Z,15.30
2019-05-03T20:08:36.704Z,12.83
2019-05-03T20:11:15.317Z,11.87
2019-05-03T20:13:45.143Z,12.60
2019-05-03T20:16:15.470Z,15.90
2019-05-03T20:18:45.434Z,11.17
2019-05-03T20:21:15.269Z,13.03
2019-05-03T20:23:44.819Z,12.83
2019-05-03T20:26:14.961Z,13.10
2019-05-03T20:28:44.918Z,14.33
2019-05-03T20:31:13.727Z,13.17
2019-05-03T20:33:42.261Z,14.10
2019-05-03T20:36:11.002Z,13.53
2019-05-03T20:38:39.513Z,11.50
2019-05-03T20:41:08.016Z,14.53
2019-05-03T20:43:55.654Z,11.40
2019-05-03T20:46:43.307Z,14.67
2019-05-03T20:49:12.421Z,13.90
2019-05-03T20:51:40.897Z,13.90
2019-05-03T20:54:09.442Z,13.60
2019-05-03T20:56:37.983Z,13.13
2019-05-03T20:59:06.501Z,11.13
2019-05-03T21:01:35.021Z,14.90
2019-05-03T21:04:04.794Z,13.23
2019-05-03T21:06:35.849Z,15.20
2019-05-03T21:09:04.692Z,17.13
2019-05-03T21:11:35.427Z,16.97
2019-05-03T21:14:04.792Z,16.10
2019-05-03T21:16:58.896Z,14.07
2019-05-03T21:19:52.555Z,16.53
2019-05-03T21:22:28.902Z,15.20
2019-05-03T21:25:03.444Z,15.47
2019-05-03T21:27:31.962Z,14.50
2019-05-03T21:30:00.451Z,18.63
2019-05-03T21:32:29.057Z,21.03
2019-05-03T21:34:57.576Z,14.90
2019-05-03T21:37:26.125Z,14.47
2019-05-03T21:39:54.924Z,17.20
2019-05-03T21:42:23.529Z,14.53
2019-05-03T21:44:52.039Z,17.23
2019-05-03T21:47:35.164Z,16.17
2019-05-03T21:50:04.704Z,13.13
2019-05-03T21:52:35.318Z,15.40
2019-05-03T21:55:05.452Z,17.97
2019-05-03T21:57:34.466Z,14.47
2019-05-03T22:00:05.516Z,14.57
2019-05-03T22:02:34.261Z,14.60
2019-05-03T22:05:02.800Z,14.07
2019-05-03T22:07:31.301Z,18.07
2019-05-03T22:09:59.913Z,14.97
2019-05-03T22:12:28.394Z,15.03
2019-05-03T22:15:05.118Z,15.70
2019-05-03T22:17:58.803Z,17.10
2019-05-03T22:20:34.916Z,14.87
2019-05-03T22:23:22.469Z,15.03
2019-05-03T22:25:51.060Z,17.37
2019-05-03T22:28:19.594Z,15.90
2019-05-03T22:30:48.179Z,15.53
2019-05-03T22:33:16.687Z,16.30
2019-05-03T22:35:45.233Z,16.63
2019-05-03T22:38:13.650Z,15.87
2019-05-03T22:40:42.182Z,17.93
2019-05-03T22:43:10.665Z,20.07
2019-05-03T22:45:39.209Z,20.80
2019-05-03T22:48:07.739Z,17.57
2019-05-03T22:50:36.288Z,16.13
2019-05-03T22:53:05.554Z,21.37
2019-05-03T22:55:34.225Z,18.97
2019-05-03T22:58:02.751Z,16.87
2019-05-03T23:00:31.243Z,16.30
2019-05-03T23:02:59.771Z,17.80
2019-05-03T23:05:28.392Z,21.93
2019-05-03T23:07:56.915Z,18.17
2019-05-03T23:10:25.800Z,19.57
2019-05-03T23:12:54.428Z,20.13
2019-05-03T23:15:24.372Z,17.10
2019-05-03T23:17:54.550Z,19.23
2019-05-03T23:20:45.315Z,19.47
2019-05-03T23:23:33.051Z,20.63
2019-05-03T23:26:01.675Z,19.83
2019-05-03T23:28:30.134Z,20.43
2019-05-03T23:30:58.662Z,20.30
2019-05-03T23:33:27.175Z,23.47
2019-05-03T23:35:56.087Z,22.03
2019-05-03T23:38:24.818Z,20.90
2019-05-03T23:40:55.317Z,21.57
2019-05-03T23:43:25.184Z,21.87
2019-05-03T23:45:54.555Z,26.43
2019-05-03T23:48:23.123Z,26.87
2019-05-03T23:50:51.790Z,25.27
2019-05-03T23:53:20.304Z,20.10
2019-05-03T23:55:56.181Z,19.13
2019-05-03T23:58:24.733Z,18.70
